Archival Weather

Abadan

Abadan, Iran (OIAA)

Report from: Wednesday, December 6, 2023 2:00 AM UTC
Current time: Friday, February 23, 2024 7:02 PM UTC

Current weather – Weather history – Daily summaries
Weather forecast

Temperature9.0°C (48.2°F)
Dew point5.0°C (41.0°F)
Winds Calm
Clouds Sky clear
Altimeter30.06 in.Hg (1018 mB)
Relative humidity76 %
Density altitude-752 ft. (-229 m)
Remarks Ceiling and visibility OK
Flight conditions Visual Meteorological Conditions
Raw dataOIAA 060200Z 00000KT CAVOK 09/05 Q1018
An error has occurred. This application may no longer respond until reloaded. Reload 🗙